createdAt,value
2019-02-06T00:00:58.885Z,59.80
2019-02-06T00:03:30.523Z,59.80
2019-02-06T00:06:01.944Z,60.50
2019-02-06T00:08:33.484Z,59.60
2019-02-06T00:11:05.240Z,59.60
2019-02-06T00:13:37.078Z,59.50
2019-02-06T00:16:08.526Z,59.40
2019-02-06T00:18:40.061Z,59.50
2019-02-06T00:21:11.473Z,59.40
2019-02-06T00:23:42.780Z,59.40
2019-02-06T00:26:14.605Z,59.30
2019-02-06T00:28:47.000Z,59.30
2019-02-06T00:31:18.550Z,59.20
2019-02-06T00:33:49.933Z,59.20
2019-02-06T00:36:21.299Z,59.00
2019-02-06T00:38:53.081Z,58.80
2019-02-06T00:41:24.428Z,58.80
2019-02-06T00:43:55.833Z,58.90
2019-02-06T00:46:27.260Z,59.00
2019-02-06T00:48:58.677Z,59.00
2019-02-06T00:51:30.252Z,59.10
2019-02-06T00:54:01.651Z,59.00
2019-02-06T00:56:32.977Z,58.90
2019-02-06T00:59:04.487Z,58.90
2019-02-06T01:01:35.978Z,58.70
2019-02-06T01:04:08.320Z,58.60
2019-02-06T01:06:39.888Z,58.70
2019-02-06T01:09:11.614Z,58.70
2019-02-06T01:11:42.964Z,58.70
2019-02-06T01:14:14.340Z,58.70
2019-02-06T01:16:45.866Z,58.70
2019-02-06T01:19:18.291Z,58.70
2019-02-06T01:21:49.628Z,58.80
2019-02-06T01:24:20.980Z,58.80
2019-02-06T01:26:52.328Z,58.90
2019-02-06T01:29:23.724Z,59.00
2019-02-06T01:31:55.548Z,59.00
2019-02-06T01:34:26.916Z,59.10
2019-02-06T01:36:58.269Z,59.10
2019-02-06T01:39:29.635Z,59.10
2019-02-06T01:42:01.002Z,59.10
2019-02-06T01:44:32.668Z,59.10
2019-02-06T01:47:05.011Z,59.10
2019-02-06T01:49:36.457Z,59.30
2019-02-06T01:52:07.814Z,59.30
2019-02-06T01:54:39.297Z,59.30
2019-02-06T01:57:11.045Z,59.30
2019-02-06T01:59:42.450Z,59.30
2019-02-06T02:02:14.055Z,59.30
2019-02-06T02:04:46.464Z,59.30
2019-02-06T02:07:17.896Z,59.30
2019-02-06T02:09:49.284Z,59.30
2019-02-06T02:12:20.644Z,59.30
2019-02-06T02:14:52.052Z,59.30
2019-02-06T02:17:23.444Z,59.30
2019-02-06T02:19:55.157Z,59.30
2019-02-06T02:22:26.516Z,59.50
2019-02-06T02:24:57.892Z,59.50
2019-02-06T02:27:29.241Z,59.50
2019-02-06T02:30:00.649Z,59.60
2019-02-06T02:32:32.262Z,59.70
2019-02-06T02:35:04.038Z,59.70
2019-02-06T02:37:35.447Z,59.60
2019-02-06T02:40:07.726Z,59.50
2019-02-06T02:42:39.161Z,59.50
2019-02-06T02:45:12.289Z,59.60
2019-02-06T02:47:43.771Z,59.70
2019-02-06T02:50:15.152Z,59.60
2019-02-06T02:52:46.524Z,59.70
2019-02-06T02:55:17.873Z,59.70
2019-02-06T02:57:49.298Z,59.60
2019-02-06T03:00:23.209Z,59.60
2019-02-06T03:03:04.166Z,59.60
2019-02-06T03:05:36.516Z,59.60
2019-02-06T03:08:07.967Z,59.70
2019-02-06T03:10:39.381Z,59.60
2019-02-06T03:13:10.758Z,59.60
2019-02-06T03:15:42.214Z,59.60
2019-02-06T03:18:13.611Z,59.70
2019-02-06T03:20:45.036Z,59.60
2019-02-06T03:23:16.445Z,59.60
2019-02-06T03:25:48.127Z,59.50
2019-02-06T03:28:19.489Z,59.50
2019-02-06T03:30:50.915Z,59.50
2019-02-06T03:33:22.389Z,59.40
2019-02-06T03:35:53.771Z,59.50
2019-02-06T03:38:25.507Z,59.50
2019-02-06T03:40:56.909Z,59.60
2019-02-06T03:43:28.256Z,59.60
2019-02-06T03:45:59.673Z,59.60
2019-02-06T03:48:31.029Z,59.70
2019-02-06T03:51:02.446Z,60.40
2019-02-06T03:53:33.817Z,59.70
2019-02-06T03:56:05.399Z,59.80
2019-02-06T03:58:37.721Z,59.90
2019-02-06T04:01:11.364Z,59.90
2019-02-06T04:03:42.192Z,59.90
2019-02-06T04:06:13.573Z,60.00
2019-02-06T04:08:44.909Z,60.10
2019-02-06T04:11:16.317Z,60.00
2019-02-06T04:13:47.688Z,60.00
2019-02-06T04:16:19.081Z,60.00
2019-02-06T04:18:50.537Z,60.00
2019-02-06T04:21:21.868Z,60.00
2019-02-06T04:23:53.322Z,59.90
2019-02-06T04:26:24.710Z,59.80
2019-02-06T04:28:56.073Z,59.80
2019-02-06T04:31:27.407Z,59.80
2019-02-06T04:33:58.700Z,60.30
2019-02-06T04:36:30.137Z,59.70
2019-02-06T04:39:01.426Z,59.60
2019-02-06T04:41:32.751Z,59.50
2019-02-06T04:44:04.239Z,59.50
2019-02-06T04:46:35.588Z,59.80
2019-02-06T04:49:07.128Z,59.20
2019-02-06T04:51:38.490Z,59.10
2019-02-06T04:54:09.966Z,59.10
2019-02-06T04:56:42.409Z,59.00
2019-02-06T04:59:13.862Z,59.10
2019-02-06T05:01:45.163Z,59.10
2019-02-06T05:04:16.534Z,59.10
2019-02-06T05:06:47.936Z,59.10
2019-02-06T05:09:19.598Z,59.00
2019-02-06T05:11:50.855Z,59.00
2019-02-06T05:14:22.213Z,59.00
2019-02-06T05:16:53.705Z,59.20
2019-02-06T05:19:25.077Z,59.20
2019-02-06T05:21:56.466Z,59.30
2019-02-06T05:24:27.814Z,59.40
2019-02-06T05:26:59.251Z,59.40
2019-02-06T05:29:30.634Z,59.50
2019-02-06T05:32:02.205Z,59.60
2019-02-06T05:34:33.544Z,59.60
2019-02-06T05:37:05.436Z,59.70
2019-02-06T05:39:36.729Z,59.70
2019-02-06T05:42:08.224Z,59.70
2019-02-06T05:44:39.492Z,59.70
2019-02-06T05:47:10.925Z,59.80
2019-02-06T05:49:42.538Z,59.80
2019-02-06T05:52:13.981Z,59.90
2019-02-06T05:54:45.348Z,59.80
2019-02-06T05:57:17.701Z,59.80
2019-02-06T05:59:49.301Z,59.80
2019-02-06T06:02:20.747Z,59.90
2019-02-06T06:04:52.189Z,59.80
2019-02-06T06:07:23.598Z,59.90
2019-02-06T06:09:55.042Z,59.90
2019-02-06T06:12:26.476Z,59.90
2019-02-06T06:14:57.832Z,59.90
2019-02-06T06:17:29.235Z,59.90
2019-02-06T06:20:00.646Z,59.90
2019-02-06T06:22:32.315Z,60.00
2019-02-06T06:25:04.332Z,60.00
2019-02-06T06:27:35.755Z,60.20
2019-02-06T06:30:09.531Z,60.30
2019-02-06T06:32:40.997Z,60.30
2019-02-06T06:35:12.414Z,60.60
2019-02-06T06:37:44.001Z,60.60
2019-02-06T06:40:20.406Z,60.50
2019-02-06T06:42:52.090Z,60.60
2019-02-06T06:45:23.828Z,60.70
2019-02-06T06:47:55.331Z,60.70
2019-02-06T06:50:26.761Z,60.70
2019-02-06T06:52:58.150Z,60.70
2019-02-06T06:55:30.948Z,60.70
2019-02-06T06:58:02.491Z,60.80
2019-02-06T07:00:35.092Z,60.90
2019-02-06T07:03:06.604Z,61.10
2019-02-06T07:05:37.918Z,61.20
2019-02-06T07:08:13.360Z,61.20
2019-02-06T07:10:42.779Z,61.30
2019-02-06T07:13:14.186Z,61.20
2019-02-06T07:15:45.618Z,61.30
2019-02-06T07:18:17.033Z,61.40
2019-02-06T07:20:48.689Z,61.20
2019-02-06T07:23:20.129Z,61.00
2019-02-06T07:25:51.576Z,60.80
2019-02-06T07:28:22.958Z,60.80
2019-02-06T07:30:54.314Z,60.60
2019-02-06T07:33:26.073Z,60.50
2019-02-06T07:35:57.629Z,60.50
2019-02-06T07:38:29.063Z,60.70
2019-02-06T07:41:00.832Z,60.70
2019-02-06T07:43:32.381Z,60.70
2019-02-06T07:46:04.520Z,60.70
2019-02-06T07:48:35.944Z,60.50
2019-02-06T07:51:07.391Z,60.30
2019-02-06T07:53:40.065Z,60.40
2019-02-06T07:56:11.328Z,60.40
2019-02-06T07:58:43.074Z,60.50
2019-02-06T08:01:14.436Z,60.60
2019-02-06T08:03:45.963Z,60.70
2019-02-06T08:06:17.321Z,60.80
2019-02-06T08:08:48.749Z,61.00
2019-02-06T08:11:20.190Z,61.20
2019-02-06T08:13:51.594Z,61.30
2019-02-06T08:16:22.942Z,61.40
2019-02-06T08:18:55.317Z,61.50
2019-02-06T08:21:26.757Z,61.30
2019-02-06T08:23:58.155Z,61.20
2019-02-06T08:26:29.512Z,61.30
2019-02-06T08:29:00.910Z,61.30
2019-02-06T08:31:32.256Z,61.40
2019-02-06T08:34:03.652Z,62.20
2019-02-06T08:36:35.000Z,61.30
2019-02-06T08:39:08.689Z,61.30
2019-02-06T08:41:40.056Z,61.20
2019-02-06T08:44:11.462Z,62.00
2019-02-06T08:46:42.841Z,61.30
2019-02-06T08:49:14.349Z,61.30
2019-02-06T08:51:45.765Z,61.20
2019-02-06T08:54:20.178Z,61.20
2019-02-06T08:56:50.286Z,61.10
2019-02-06T08:59:22.602Z,61.10
2019-02-06T09:01:53.973Z,61.20
2019-02-06T09:04:25.400Z,61.00
2019-02-06T09:06:56.744Z,61.00
2019-02-06T09:09:28.145Z,61.00
2019-02-06T09:11:59.504Z,61.00
2019-02-06T09:14:31.800Z,61.30
2019-02-06T09:17:03.427Z,61.00
2019-02-06T09:19:35.825Z,60.70
2019-02-06T09:22:07.184Z,60.70
2019-02-06T09:24:38.561Z,60.60
2019-02-06T09:27:10.099Z,60.80
2019-02-06T09:29:41.636Z,60.70
2019-02-06T09:32:13.013Z,60.70
2019-02-06T09:34:44.434Z,60.90
2019-02-06T09:37:15.817Z,60.80
2019-02-06T09:39:47.196Z,60.40
2019-02-06T09:42:18.958Z,60.20
2019-02-06T09:44:50.353Z,60.30
2019-02-06T09:47:21.749Z,60.00
2019-02-06T09:49:53.197Z,60.10
2019-02-06T09:52:28.120Z,60.00
2019-02-06T09:54:57.765Z,59.80
2019-02-06T09:57:29.116Z,59.60
2019-02-06T10:00:00.668Z,59.60
2019-02-06T10:02:32.039Z,59.40
2019-02-06T10:05:03.580Z,59.30
2019-02-06T10:07:34.974Z,59.40
2019-02-06T10:10:08.792Z,59.40
2019-02-06T10:12:40.143Z,58.70
2019-02-06T10:15:13.298Z,58.60
2019-02-06T10:17:44.714Z,58.60
2019-02-06T10:20:16.788Z,58.30
2019-02-06T10:22:48.235Z,58.20
2019-02-06T10:25:19.717Z,58.50
2019-02-06T10:27:51.080Z,58.70
2019-02-06T10:30:36.966Z,58.80
2019-02-06T10:33:08.324Z,58.50
2019-02-06T10:35:39.772Z,58.40
2019-02-06T10:38:11.496Z,58.10
2019-02-06T10:40:42.877Z,58.10
2019-02-06T10:43:14.232Z,57.80
2019-02-06T10:45:45.765Z,57.90
2019-02-06T10:48:17.210Z,57.90
2019-02-06T10:50:50.844Z,58.20
2019-02-06T10:53:22.293Z,57.30
2019-02-06T10:55:53.697Z,57.10
2019-02-06T10:58:25.083Z,56.80
2019-02-06T11:00:59.149Z,56.70
2019-02-06T11:03:30.513Z,57.00
2019-02-06T11:06:02.865Z,57.20
2019-02-06T11:08:34.286Z,56.50
2019-02-06T11:11:05.845Z,55.10
2019-02-06T11:13:37.209Z,54.60
2019-02-06T11:16:08.650Z,54.80
2019-02-06T11:18:40.150Z,53.70
2019-02-06T11:21:11.700Z,52.80
2019-02-06T11:23:43.545Z,52.80
2019-02-06T11:26:15.053Z,51.70
2019-02-06T11:28:46.419Z,50.60
2019-02-06T11:31:17.845Z,50.80
2019-02-06T11:33:49.244Z,50.80
2019-02-06T11:36:24.303Z,50.50
2019-02-06T11:38:55.005Z,50.60
2019-02-06T11:41:26.372Z,50.50
2019-02-06T11:43:57.790Z,49.50
2019-02-06T11:46:29.221Z,49.20
2019-02-06T11:49:00.869Z,50.10
2019-02-06T11:51:32.246Z,50.70
2019-02-06T11:54:03.630Z,50.90
2019-02-06T11:56:34.933Z,50.60
2019-02-06T11:59:06.319Z,51.00
2019-02-06T12:01:48.758Z,51.10
2019-02-06T12:04:20.061Z,51.30
2019-02-06T12:06:51.601Z,51.00
2019-02-06T12:09:23.008Z,50.90
2019-02-06T12:11:54.471Z,51.20
2019-02-06T12:14:25.839Z,51.10
2019-02-06T12:16:57.256Z,51.40
2019-02-06T12:19:28.542Z,50.80
2019-02-06T12:22:00.039Z,51.20
2019-02-06T12:24:31.788Z,51.70
2019-02-06T12:27:03.706Z,51.40
2019-02-06T12:29:35.100Z,50.60
2019-02-06T12:32:07.072Z,50.70
2019-02-06T12:34:38.421Z,50.10
2019-02-06T12:37:09.846Z,49.40
2019-02-06T12:39:41.500Z,49.50
2019-02-06T12:42:13.089Z,49.20
2019-02-06T12:44:44.520Z,47.00
2019-02-06T12:47:16.211Z,47.10
2019-02-06T12:49:47.856Z,46.90
2019-02-06T12:52:19.257Z,45.20
2019-02-06T12:54:50.904Z,43.30
2019-02-06T12:57:22.238Z,42.90
2019-02-06T12:59:53.614Z,42.90
2019-02-06T13:02:25.359Z,42.20
2019-02-06T13:04:56.812Z,41.60
2019-02-06T13:07:29.850Z,40.80
2019-02-06T13:10:01.250Z,40.90
2019-02-06T13:12:32.663Z,40.50
2019-02-06T13:15:04.613Z,40.80
2019-02-06T13:17:36.515Z,41.00
2019-02-06T13:20:11.345Z,41.50
2019-02-06T13:22:42.771Z,40.60
2019-02-06T13:25:14.357Z,40.80
2019-02-06T13:27:46.074Z,41.10
2019-02-06T13:30:28.633Z,41.70
2019-02-06T13:33:00.349Z,42.10
2019-02-06T13:35:32.024Z,42.60
2019-02-06T13:38:04.602Z,42.90
2019-02-06T13:40:45.275Z,43.50
2019-02-06T13:43:09.233Z,43.70
2019-02-06T13:45:43.142Z,44.20
2019-02-06T13:48:14.564Z,44.60
2019-02-06T13:50:46.045Z,44.90
2019-02-06T13:53:17.428Z,45.40
2019-02-06T13:55:49.155Z,45.60
2019-02-06T13:58:20.741Z,46.20
2019-02-06T14:00:53.208Z,46.50
2019-02-06T14:03:25.572Z,46.80
2019-02-06T14:05:57.106Z,47.10
2019-02-06T14:08:29.099Z,47.50
2019-02-06T14:11:01.543Z,47.80
2019-02-06T14:13:32.965Z,48.10
2019-02-06T14:16:05.820Z,48.30
2019-02-06T14:18:37.225Z,48.50
2019-02-06T14:21:08.973Z,48.70
2019-02-06T14:24:02.241Z,48.90
2019-02-06T14:27:03.729Z,49.00
2019-02-06T14:30:09.369Z,49.20
2019-02-06T14:33:10.985Z,49.40
2019-02-06T14:36:26.543Z,49.60
2019-02-06T14:39:43.413Z,49.80
2019-02-06T14:42:40.504Z,49.90
2019-02-06T14:45:43.748Z,50.20
2019-02-06T14:48:43.821Z,50.40
2019-02-06T14:51:42.189Z,50.50
2019-02-06T14:54:44.784Z,50.70
2019-02-06T14:57:32.713Z,51.10
2019-02-06T15:00:41.143Z,51.10
2019-02-06T15:03:50.789Z,51.30
2019-02-06T15:06:49.377Z,51.30
2019-02-06T15:10:00.402Z,51.40
2019-02-06T15:13:16.154Z,51.40
2019-02-06T15:16:25.532Z,51.50
2019-02-06T15:19:32.330Z,51.70
2019-02-06T15:22:43.969Z,51.70
2019-02-06T15:26:02.433Z,51.90
2019-02-06T15:29:09.720Z,52.50
2019-02-06T15:32:14.419Z,52.20
2019-02-06T15:35:15.262Z,52.20
2019-02-06T15:38:09.651Z,52.60
2019-02-06T15:41:31.116Z,52.60
2019-02-06T15:44:26.113Z,52.80
2019-02-06T15:47:29.645Z,53.10
2019-02-06T15:50:26.751Z,53.30
2019-02-06T15:53:23.557Z,53.20
2019-02-06T15:57:06.238Z,53.50
2019-02-06T16:00:16.522Z,53.80
2019-02-06T16:03:14.753Z,54.00
2019-02-06T16:06:16.581Z,54.00
2019-02-06T16:09:16.781Z,54.20
2019-02-06T16:12:17.416Z,54.30
2019-02-06T16:15:39.527Z,55.10
2019-02-06T16:18:44.232Z,54.70
2019-02-06T16:21:38.333Z,55.00
2019-02-06T16:24:34.312Z,55.40
2019-02-06T16:27:40.077Z,55.60
2019-02-06T16:30:58.433Z,56.10
2019-02-06T16:34:19.736Z,56.10
2019-02-06T16:37:03.930Z,56.60
2019-02-06T16:39:59.196Z,57.00
2019-02-06T16:42:58.956Z,56.90
2019-02-06T16:46:20.297Z,57.10
2019-02-06T16:49:13.394Z,57.10
2019-02-06T16:52:25.373Z,57.10
2019-02-06T16:55:52.913Z,57.50
2019-02-06T16:58:38.782Z,57.60
2019-02-06T17:01:36.449Z,57.60
2019-02-06T17:04:44.872Z,57.90
2019-02-06T17:07:58.837Z,57.80
2019-02-06T17:11:09.809Z,58.00
2019-02-06T17:14:19.436Z,58.60
2019-02-06T17:17:19.784Z,58.20
2019-02-06T17:20:26.612Z,58.30
2019-02-06T17:23:40.684Z,58.20
2019-02-06T17:26:47.560Z,58.90
2019-02-06T17:30:03.204Z,58.10
2019-02-06T17:33:10.759Z,58.30
2019-02-06T17:36:07.921Z,58.30
2019-02-06T17:39:32.463Z,58.40
2019-02-06T17:42:30.890Z,58.30
2019-02-06T17:45:40.853Z,58.20
2019-02-06T17:49:08.278Z,58.30
2019-02-06T17:52:23.760Z,58.30
2019-02-06T17:55:19.889Z,58.20
2019-02-06T17:57:53.759Z,58.20
2019-02-06T18:00:43.342Z,58.10
2019-02-06T18:03:15.078Z,58.20
2019-02-06T18:05:47.761Z,58.20
2019-02-06T18:08:21.112Z,58.20
2019-02-06T18:10:52.689Z,58.30
2019-02-06T18:13:24.630Z,58.50
2019-02-06T18:15:57.293Z,58.60
2019-02-06T18:18:29.125Z,58.70
2019-02-06T18:21:00.535Z,58.70
2019-02-06T18:23:32.049Z,58.80
2019-02-06T18:26:03.601Z,59.20
2019-02-06T18:28:36.606Z,59.20
2019-02-06T18:31:08.104Z,59.40
2019-02-06T18:33:39.396Z,59.30
2019-02-06T18:36:10.838Z,59.20
2019-02-06T18:38:46.693Z,59.30
2019-02-06T18:41:15.562Z,59.30
2019-02-06T18:43:46.949Z,59.20
2019-02-06T18:46:18.877Z,59.10
2019-02-06T18:48:50.440Z,59.10
2019-02-06T18:51:22.004Z,59.00
2019-02-06T18:53:53.361Z,59.00
2019-02-06T18:56:24.683Z,58.80
2019-02-06T18:58:56.380Z,58.80
2019-02-06T19:01:28.347Z,58.80
2019-02-06T19:03:59.783Z,58.70
2019-02-06T19:06:31.252Z,58.60
2019-02-06T19:09:02.680Z,58.60
2019-02-06T19:11:34.453Z,58.60
2019-02-06T19:14:06.080Z,58.60
2019-02-06T19:16:37.609Z,58.60
2019-02-06T19:19:08.976Z,58.60
2019-02-06T19:21:40.392Z,58.70
2019-02-06T19:24:11.764Z,58.80
2019-02-06T19:26:43.237Z,58.80
2019-02-06T19:29:14.582Z,58.90
2019-02-06T19:31:46.384Z,59.00
2019-02-06T19:34:17.883Z,59.20
2019-02-06T19:36:49.364Z,59.20
2019-02-06T19:39:20.879Z,59.20
2019-02-06T19:41:52.697Z,59.30
2019-02-06T19:44:24.062Z,59.30
2019-02-06T19:46:55.513Z,59.40
2019-02-06T19:49:28.028Z,59.30
2019-02-06T19:52:01.222Z,59.40
2019-02-06T19:54:34.033Z,59.40
2019-02-06T19:57:06.146Z,59.40
2019-02-06T19:59:40.197Z,59.20
2019-02-06T20:02:12.733Z,59.20
2019-02-06T20:04:46.377Z,59.20
2019-02-06T20:07:19.708Z,59.10
2019-02-06T20:09:51.423Z,59.20
2019-02-06T20:12:25.977Z,59.10
2019-02-06T20:14:58.594Z,59.20
2019-02-06T20:17:29.960Z,59.20
2019-02-06T20:20:01.588Z,59.30
2019-02-06T20:22:33.132Z,59.30
2019-02-06T20:25:05.755Z,59.50
2019-02-06T20:27:37.257Z,59.40
2019-02-06T20:30:12.104Z,59.50
2019-02-06T20:32:43.713Z,59.50
2019-02-06T20:35:15.216Z,59.40
2019-02-06T20:37:46.718Z,59.30
2019-02-06T20:40:20.828Z,59.40
2019-02-06T20:42:52.228Z,59.30
2019-02-06T20:45:23.738Z,59.30
2019-02-06T20:47:55.324Z,59.30
2019-02-06T20:50:30.899Z,59.40
2019-02-06T20:53:04.426Z,59.30
2019-02-06T20:55:35.958Z,59.30
2019-02-06T20:58:07.384Z,59.30
2019-02-06T21:00:38.993Z,59.30
2019-02-06T21:03:10.581Z,59.30
2019-02-06T21:05:42.085Z,59.20
2019-02-06T21:08:14.073Z,59.30
2019-02-06T21:10:45.365Z,59.30
2019-02-06T21:13:19.001Z,59.70
2019-02-06T21:15:50.309Z,59.30
2019-02-06T21:18:21.762Z,59.30
2019-02-06T21:20:53.076Z,59.30
2019-02-06T21:23:24.484Z,59.30
2019-02-06T21:25:55.856Z,59.30
2019-02-06T21:28:27.314Z,59.40
2019-02-06T21:30:58.568Z,59.30
2019-02-06T21:33:30.036Z,59.30
2019-02-06T21:36:01.383Z,59.30
2019-02-06T21:38:32.912Z,59.30
2019-02-06T21:41:04.398Z,59.30
2019-02-06T21:43:43.916Z,59.40
2019-02-06T21:46:09.085Z,59.50
2019-02-06T21:48:40.689Z,59.50
2019-02-06T21:51:12.194Z,59.50
2019-02-06T21:53:44.613Z,59.60
2019-02-06T21:56:16.020Z,59.50
2019-02-06T21:58:47.722Z,59.50
2019-02-06T22:01:22.509Z,59.70
2019-02-06T22:03:54.057Z,59.60
2019-02-06T22:06:25.630Z,59.50
2019-02-06T22:08:56.986Z,59.60
2019-02-06T22:11:28.504Z,59.50
2019-02-06T22:14:00.298Z,59.50
2019-02-06T22:16:33.021Z,59.50
2019-02-06T22:19:05.636Z,59.40
2019-02-06T22:21:37.385Z,59.30
2019-02-06T22:24:10.148Z,59.40
2019-02-06T22:26:42.195Z,59.30
2019-02-06T22:29:13.770Z,59.40
2019-02-06T22:31:45.231Z,59.40
2019-02-06T22:34:17.216Z,59.30
2019-02-06T22:36:48.622Z,59.40
2019-02-06T22:39:20.088Z,59.50
2019-02-06T22:41:51.591Z,59.50
2019-02-06T22:44:23.160Z,59.60
2019-02-06T22:46:54.909Z,59.50
2019-02-06T22:49:26.332Z,59.60
2019-02-06T22:51:57.636Z,59.60
2019-02-06T22:54:29.909Z,59.70
2019-02-06T22:57:01.264Z,59.70
2019-02-06T22:59:33.054Z,59.60
2019-02-06T23:02:05.312Z,59.70
2019-02-06T23:04:36.777Z,59.60
2019-02-06T23:07:08.303Z,59.80
2019-02-06T23:09:39.632Z,59.80
2019-02-06T23:12:11.288Z,59.80
2019-02-06T23:14:42.696Z,59.90
2019-02-06T23:17:14.093Z,59.90
2019-02-06T23:19:45.532Z,59.90
2019-02-06T23:22:16.889Z,60.00
2019-02-06T23:24:48.666Z,60.40
2019-02-06T23:27:20.097Z,60.40
2019-02-06T23:29:51.505Z,60.50
2019-02-06T23:32:22.878Z,60.80
2019-02-06T23:34:55.181Z,60.80
2019-02-06T23:37:26.681Z,61.00
2019-02-06T23:39:58.064Z,61.30
2019-02-06T23:42:29.416Z,61.50
2019-02-06T23:45:00.701Z,61.50
2019-02-06T23:47:32.056Z,61.50
2019-02-06T23:50:03.940Z,61.60
2019-02-06T23:52:36.264Z,61.70
2019-02-06T23:55:08.592Z,61.90
2019-02-06T23:57:39.967Z,62.10
